createdAt,value
2019-05-10T00:00:33.557Z,0.80
2019-05-10T00:05:56.727Z,1.00
2019-05-10T00:11:33.474Z,0.90
2019-05-10T00:16:38.542Z,0.93
2019-05-10T00:21:44.290Z,1.10
2019-05-10T00:26:49.639Z,1.00
2019-05-10T00:31:55.015Z,1.10
2019-05-10T00:37:00.159Z,0.90
2019-05-10T00:42:05.383Z,0.90
2019-05-10T00:47:10.883Z,1.00
2019-05-10T00:52:16.230Z,0.90
2019-05-10T00:57:21.587Z,1.10
2019-05-10T01:02:26.943Z,1.00
2019-05-10T01:07:32.914Z,0.80
2019-05-10T01:12:38.009Z,0.80
2019-05-10T01:17:43.079Z,0.90
2019-05-10T01:22:48.180Z,0.90
2019-05-10T01:27:53.405Z,0.83
2019-05-10T01:32:59.193Z,1.00
2019-05-10T01:38:05.068Z,0.97
2019-05-10T01:43:10.476Z,0.90
2019-05-10T01:48:15.469Z,0.90
2019-05-10T01:53:21.254Z,1.00
2019-05-10T01:58:26.606Z,1.07
2019-05-10T02:03:31.589Z,1.00
2019-05-10T02:08:37.219Z,0.80
2019-05-10T02:13:42.581Z,0.85
2019-05-10T02:18:48.009Z,0.90
2019-05-10T02:23:53.011Z,0.80
2019-05-10T02:28:58.086Z,0.82
2019-05-10T02:34:03.153Z,0.90
2019-05-10T02:39:09.206Z,1.10
2019-05-10T02:44:14.346Z,1.15
2019-05-10T02:49:19.504Z,1.40
2019-05-10T02:54:24.645Z,1.30
2019-05-10T02:59:30.851Z,1.20
2019-05-10T03:04:37.209Z,1.32
2019-05-10T03:09:43.703Z,1.50
2019-05-10T03:14:52.688Z,1.62
2019-05-10T03:19:59.272Z,1.80
2019-05-10T03:25:05.393Z,1.67
2019-05-10T03:30:11.307Z,1.65
2019-05-10T03:35:16.486Z,1.70
2019-05-10T03:40:21.546Z,1.65
2019-05-10T03:45:27.032Z,1.70
2019-05-10T03:50:32.682Z,2.00
2019-05-10T03:55:38.349Z,2.15
2019-05-10T04:00:43.492Z,2.10
2019-05-10T04:05:48.993Z,2.10
2019-05-10T04:10:54.738Z,2.30
2019-05-10T04:16:00.327Z,2.55
2019-05-10T04:21:05.494Z,2.90
2019-05-10T04:26:11.221Z,2.92
2019-05-10T04:31:16.673Z,3.23
2019-05-10T04:36:21.758Z,3.73
2019-05-10T04:41:26.872Z,3.52
2019-05-10T04:46:32.665Z,3.42
2019-05-10T04:51:37.980Z,3.75
2019-05-10T04:56:43.091Z,3.60
2019-05-10T05:01:48.734Z,3.80
2019-05-10T05:06:54.085Z,3.60
2019-05-10T05:11:59.439Z,3.90
2019-05-10T05:17:04.799Z,4.20
2019-05-10T05:22:10.055Z,4.03
2019-05-10T05:27:15.323Z,4.07
2019-05-10T05:32:20.679Z,4.35
2019-05-10T05:37:26.198Z,4.25
2019-05-10T05:42:31.345Z,4.15
2019-05-10T05:47:37.558Z,4.03
2019-05-10T05:52:43.843Z,3.90
2019-05-10T05:57:49.174Z,4.30
2019-05-10T06:02:54.467Z,3.43
2019-05-10T06:07:59.718Z,4.10
2019-05-10T06:13:05.190Z,4.47
2019-05-10T06:18:12.158Z,5.12
2019-05-10T06:23:17.736Z,4.27
2019-05-10T06:28:27.044Z,3.47
2019-05-10T06:33:30.197Z,5.28
2019-05-10T06:38:36.067Z,3.10
2019-05-10T06:43:45.727Z,3.15
2019-05-10T06:48:49.447Z,2.62
2019-05-10T06:53:54.779Z,2.87
2019-05-10T06:59:12.388Z,3.13
2019-05-10T07:04:06.935Z,2.80
2019-05-10T07:09:12.294Z,2.50
2019-05-10T07:14:17.459Z,2.47
2019-05-10T07:19:22.531Z,2.40
2019-05-10T07:24:28.180Z,2.30
2019-05-10T07:29:41.767Z,2.58
2019-05-10T07:34:40.887Z,1.92
2019-05-10T07:39:46.266Z,2.05
2019-05-10T07:44:52.186Z,2.02
2019-05-10T07:49:57.277Z,2.03
2019-05-10T07:55:02.902Z,2.22
2019-05-10T08:00:09.526Z,2.10
2019-05-10T08:05:15.431Z,2.00
2019-05-10T08:10:21.502Z,2.10
2019-05-10T08:15:30.540Z,2.33
2019-05-10T08:20:46.403Z,7.80
2019-05-10T08:25:46.646Z,2.52
2019-05-10T08:30:57.272Z,2.30
2019-05-10T08:36:00.630Z,2.62
2019-05-10T08:41:02.665Z,2.20
2019-05-10T08:46:08.674Z,2.27
2019-05-10T08:51:13.819Z,1.80
2019-05-10T08:56:21.646Z,1.70
2019-05-10T09:01:30.077Z,1.80
2019-05-10T09:06:32.925Z,1.70
2019-05-10T09:11:38.203Z,1.90
2019-05-10T09:16:52.771Z,2.10
2019-05-10T09:21:54.796Z,2.35
2019-05-10T09:26:57.687Z,2.57
2019-05-10T09:32:06.304Z,2.47
2019-05-10T09:37:14.536Z,2.20
2019-05-10T09:42:25.480Z,2.12
2019-05-10T09:47:24.489Z,2.20
2019-05-10T09:52:29.635Z,2.50
2019-05-10T09:57:37.827Z,2.67
2019-05-10T10:02:47.856Z,3.05
2019-05-10T10:07:49.210Z,3.15
2019-05-10T10:12:58.306Z,3.50
2019-05-10T10:18:01.603Z,3.10
2019-05-10T10:23:07.437Z,2.90
2019-05-10T10:28:17.097Z,2.35
2019-05-10T10:33:25.403Z,2.50
2019-05-10T10:38:30.597Z,2.60
2019-05-10T10:43:33.610Z,3.10
2019-05-10T10:48:43.526Z,2.60
2019-05-10T10:53:47.042Z,2.70
2019-05-10T10:58:52.559Z,2.93
2019-05-10T11:04:03.567Z,2.35
2019-05-10T11:09:07.794Z,2.72
2019-05-10T11:14:12.822Z,3.08
2019-05-10T11:19:17.887Z,2.20
2019-05-10T11:24:23.611Z,1.53
2019-05-10T11:29:30.881Z,1.77
2019-05-10T11:34:37.725Z,2.57
2019-05-10T11:39:46.895Z,2.30
2019-05-10T11:44:54.220Z,1.72
2019-05-10T11:49:56.726Z,2.10
2019-05-10T11:55:02.050Z,1.70
2019-05-10T12:00:14.200Z,1.92
2019-05-10T12:05:20.017Z,1.70
2019-05-10T12:10:25.540Z,2.00
2019-05-10T12:15:31.768Z,2.55
2019-05-10T12:20:51.590Z,2.55
2019-05-10T12:25:57.937Z,2.40
2019-05-10T12:30:51.635Z,2.10
2019-05-10T12:35:57.099Z,1.90
2019-05-10T12:41:05.370Z,2.10
2019-05-10T12:46:10.492Z,1.80
2019-05-10T12:51:16.757Z,1.70
2019-05-10T12:56:21.841Z,1.70
2019-05-10T13:01:31.740Z,1.47
2019-05-10T13:06:35.593Z,1.40
2019-05-10T13:11:40.698Z,1.50
2019-05-10T13:16:45.771Z,1.80
2019-05-10T13:21:53.792Z,1.70
2019-05-10T13:26:57.672Z,1.62
2019-05-10T13:32:02.741Z,2.45
2019-05-10T13:37:13.599Z,4.30
2019-05-10T13:42:15.255Z,3.42
2019-05-10T13:47:20.640Z,2.50
2019-05-10T13:52:29.829Z,2.63
2019-05-10T13:57:32.769Z,2.70
2019-05-10T14:02:38.356Z,3.20
2019-05-10T14:07:51.275Z,3.70
2019-05-10T14:12:55.893Z,4.00
2019-05-10T14:17:57.987Z,8.18
2019-05-10T14:23:03.087Z,6.20
2019-05-10T14:28:09.599Z,4.05
2019-05-10T14:33:17.262Z,5.00
2019-05-10T14:38:22.956Z,3.30
2019-05-10T14:43:28.578Z,2.83
2019-05-10T14:48:35.511Z,3.62
2019-05-10T14:53:41.038Z,2.90
2019-05-10T14:58:46.803Z,2.47
2019-05-10T15:03:52.357Z,2.47
2019-05-10T15:08:57.439Z,2.30
2019-05-10T15:14:03.478Z,2.22
2019-05-10T15:19:08.569Z,2.80
2019-05-10T15:24:13.566Z,2.50
2019-05-10T15:29:22.883Z,2.67
2019-05-10T15:34:25.611Z,2.87
2019-05-10T15:39:31.304Z,2.50
2019-05-10T15:44:36.370Z,2.77
2019-05-10T15:49:41.523Z,3.25
2019-05-10T15:54:47.209Z,4.47
2019-05-10T15:59:56.836Z,4.93
2019-05-10T16:05:00.010Z,4.22
2019-05-10T16:10:05.736Z,12.05
2019-05-10T16:15:13.619Z,10.50
2019-05-10T16:20:18.275Z,9.00
2019-05-10T16:25:23.420Z,12.50
2019-05-10T16:30:28.431Z,4.80
2019-05-10T16:35:38.817Z,4.50
2019-05-10T16:40:44.311Z,4.00
2019-05-10T16:45:47.935Z,5.20
2019-05-10T16:50:53.274Z,6.72
2019-05-10T16:55:58.637Z,11.12
2019-05-10T17:01:03.971Z,7.80
2019-05-10T17:06:09.766Z,6.15
2019-05-10T17:11:15.227Z,6.10
2019-05-10T17:16:20.375Z,8.05
2019-05-10T17:21:25.525Z,7.90
2019-05-10T17:26:32.806Z,7.78
2019-05-10T17:31:39.690Z,6.78
2019-05-10T17:36:45.377Z,5.07
2019-05-10T17:41:50.536Z,6.10
2019-05-10T17:46:57.478Z,6.28
2019-05-10T17:52:03.164Z,6.50
2019-05-10T17:57:10.772Z,6.58
2019-05-10T18:02:15.252Z,7.30
2019-05-10T18:07:20.403Z,7.20
2019-05-10T18:12:27.236Z,6.57
2019-05-10T18:17:32.737Z,6.75
2019-05-10T18:22:43.482Z,7.03
2019-05-10T18:27:45.266Z,6.85
2019-05-10T18:32:50.993Z,6.92
2019-05-10T18:37:59.610Z,9.25
2019-05-10T18:43:04.516Z,9.03
2019-05-10T18:48:10.205Z,9.90
2019-05-10T18:53:15.329Z,8.28
2019-05-10T18:58:23.402Z,9.28
2019-05-10T19:03:33.456Z,9.50
2019-05-10T19:08:34.995Z,8.15
2019-05-10T19:13:47.306Z,6.97
2019-05-10T19:18:47.397Z,8.45
2019-05-10T19:23:53.684Z,9.13
2019-05-10T19:29:05.040Z,7.77
2019-05-10T19:34:09.160Z,6.03
2019-05-10T19:39:13.657Z,7.90
2019-05-10T19:44:20.134Z,8.03
2019-05-10T19:49:25.510Z,8.33
2019-05-10T19:54:30.523Z,9.70
2019-05-10T19:59:35.853Z,10.53
2019-05-10T20:04:41.692Z,9.28
2019-05-10T20:09:47.137Z,11.43
2019-05-10T20:14:52.234Z,7.75
2019-05-10T20:19:57.380Z,7.43
2019-05-10T20:25:02.472Z,7.22
2019-05-10T20:30:08.253Z,7.55
2019-05-10T20:35:13.627Z,7.50
2019-05-10T20:40:18.955Z,8.03
2019-05-10T20:45:24.081Z,7.53
2019-05-10T20:50:29.597Z,7.25
2019-05-10T20:55:34.670Z,7.70
2019-05-10T21:00:39.769Z,7.50
2019-05-10T21:05:45.463Z,7.67
2019-05-10T21:10:50.507Z,9.08
2019-05-10T21:15:56.398Z,9.30
2019-05-10T21:21:01.991Z,10.70
2019-05-10T21:26:07.010Z,9.70
2019-05-10T21:31:12.442Z,15.13
2019-05-10T21:36:17.896Z,17.52
2019-05-10T21:41:23.284Z,16.33
2019-05-10T21:46:28.834Z,11.93
2019-05-10T21:51:34.041Z,13.30
2019-05-10T21:56:39.771Z,12.93
2019-05-10T22:01:45.268Z,9.47
2019-05-10T22:06:50.621Z,9.33
2019-05-10T22:11:59.361Z,9.28
2019-05-10T22:17:03.896Z,10.82
2019-05-10T22:22:08.967Z,11.10
2019-05-10T22:27:14.505Z,9.20
2019-05-10T22:32:19.775Z,10.72
2019-05-10T22:37:25.328Z,12.17
2019-05-10T22:42:30.607Z,10.18
2019-05-10T22:47:36.246Z,11.30
2019-05-10T22:52:41.375Z,11.20
2019-05-10T22:57:46.863Z,11.00
2019-05-10T23:02:52.797Z,10.77
2019-05-10T23:07:58.200Z,10.67
2019-05-10T23:13:04.065Z,11.20
2019-05-10T23:18:09.162Z,10.10
2019-05-10T23:23:14.882Z,9.13
2019-05-10T23:28:20.650Z,7.93
2019-05-10T23:33:26.301Z,9.05
2019-05-10T23:38:31.411Z,9.65
2019-05-10T23:43:36.726Z,9.87
2019-05-10T23:48:42.250Z,9.27
2019-05-10T23:53:47.750Z,9.20
2019-05-10T23:58:53.104Z,8.40
